sensor_id;sensor_type;location;lat;lon;timestamp;temperature;humidity
34283;DHT22;20542;49.828;8.746;2022-07-18T00:00:29;16.30;99.90
34283;DHT22;20542;49.828;8.746;2022-07-18T00:02:55;16.20;99.90
34283;DHT22;20542;49.828;8.746;2022-07-18T00:05:20;16.20;99.90
34283;DHT22;20542;49.828;8.746;2022-07-18T00:07:46;16.20;99.90
34283;DHT22;20542;49.828;8.746;2022-07-18T00:10:12;16.10;99.90
34283;DHT22;20542;49.828;8.746;2022-07-18T00:12:37;16.00;99.90
34283;DHT22;20542;49.828;8.746;2022-07-18T00:15:04;15.90;99.90
34283;DHT22;20542;49.828;8.746;2022-07-18T00:17:30;15.90;99.90
34283;DHT22;20542;49.828;8.746;2022-07-18T00:19:56;15.90;99.90
34283;DHT22;20542;49.828;8.746;2022-07-18T00:22:21;15.80;99.90
34283;DHT22;20542;49.828;8.746;2022-07-18T00:24:47;15.80;99.90
34283;DHT22;20542;49.828;8.746;2022-07-18T00:27:12;15.80;99.90
34283;DHT22;20542;49.828;8.746;2022-07-18T00:29:38;15.80;99.90
34283;DHT22;20542;49.828;8.746;2022-07-18T00:32:05;15.80;99.90
34283;DHT22;20542;49.828;8.746;2022-07-18T00:34:31;15.80;99.90
34283;DHT22;20542;49.828;8.746;2022-07-18T00:36:57;15.80;99.90
34283;DHT22;20542;49.828;8.746;2022-07-18T00:39:23;15.70;99.90
34283;DHT22;20542;49.828;8.746;2022-07-18T00:41:50;15.70;99.90
34283;DHT22;20542;49.828;8.746;2022-07-18T00:44:20;15.60;99.90
34283;DHT22;20542;49.828;8.746;2022-07-18T00:46:45;15.60;99.90
34283;DHT22;20542;49.828;8.746;2022-07-18T00:49:11;15.60;99.90
34283;DHT22;20542;49.828;8.746;2022-07-18T00:51:37;15.60;99.90
34283;DHT22;20542;49.828;8.746;2022-07-18T00:54:04;15.60;99.90
34283;DHT22;20542;49.828;8.746;2022-07-18T00:56:29;15.70;99.90
34283;DHT22;20542;49.828;8.746;2022-07-18T00:58:55;15.80;99.90
34283;DHT22;20542;49.828;8.746;2022-07-18T01:01:21;15.80;99.90
34283;DHT22;20542;49.828;8.746;2022-07-18T01:04:05;16.00;99.90
34283;DHT22;20542;49.828;8.746;2022-07-18T01:06:31;16.00;99.90
34283;DHT22;20542;49.828;8.746;2022-07-18T01:08:57;15.90;99.90
34283;DHT22;20542;49.828;8.746;2022-07-18T01:11:23;15.90;99.90
34283;DHT22;20542;49.828;8.746;2022-07-18T01:13:49;15.80;99.90
34283;DHT22;20542;49.828;8.746;2022-07-18T01:16:16;15.80;99.90
34283;DHT22;20542;49.828;8.746;2022-07-18T01:18:47;15.80;99.90
34283;DHT22;20542;49.828;8.746;2022-07-18T01:21:13;15.70;99.90
34283;DHT22;20542;49.828;8.746;2022-07-18T01:23:39;15.60;99.90
34283;DHT22;20542;49.828;8.746;2022-07-18T01:26:05;15.50;99.90
34283;DHT22;20542;49.828;8.746;2022-07-18T01:28:31;15.50;99.90
34283;DHT22;20542;49.828;8.746;2022-07-18T01:30:57;15.40;99.90
34283;DHT22;20542;49.828;8.746;2022-07-18T01:33:22;15.40;99.90
34283;DHT22;20542;49.828;8.746;2022-07-18T01:35:48;15.30;99.90
34283;DHT22;20542;49.828;8.746;2022-07-18T01:38:13;15.20;99.90
34283;DHT22;20542;49.828;8.746;2022-07-18T01:40:39;15.20;99.90
34283;DHT22;20542;49.828;8.746;2022-07-18T01:43:05;15.20;99.90
34283;DHT22;20542;49.828;8.746;2022-07-18T01:45:30;15.20;99.90
34283;DHT22;20542;49.828;8.746;2022-07-18T01:47:56;15.30;99.90
34283;DHT22;20542;49.828;8.746;2022-07-18T01:50:21;15.30;99.90
34283;DHT22;20542;49.828;8.746;2022-07-18T01:52:47;15.40;99.90
34283;DHT22;20542;49.828;8.746;2022-07-18T01:55:13;15.20;99.90
34283;DHT22;20542;49.828;8.746;2022-07-18T01:57:39;15.30;99.90
34283;DHT22;20542;49.828;8.746;2022-07-18T02:00:06;15.30;99.90
34283;DHT22;20542;49.828;8.746;2022-07-18T02:02:32;15.40;99.90
34283;DHT22;20542;49.828;8.746;2022-07-18T02:04:58;15.50;99.90
34283;DHT22;20542;49.828;8.746;2022-07-18T02:07:32;15.50;99.90
34283;DHT22;20542;49.828;8.746;2022-07-18T02:09:58;15.60;99.90
34283;DHT22;20542;49.828;8.746;2022-07-18T02:12:24;15.60;99.90
34283;DHT22;20542;49.828;8.746;2022-07-18T02:14:51;15.60;99.90
34283;DHT22;20542;49.828;8.746;2022-07-18T02:17:17;15.50;99.90
34283;DHT22;20542;49.828;8.746;2022-07-18T02:19:43;15.40;99.90
34283;DHT22;20542;49.828;8.746;2022-07-18T02:22:09;15.40;99.90
34283;DHT22;20542;49.828;8.746;2022-07-18T02:24:34;15.40;99.90
34283;DHT22;20542;49.828;8.746;2022-07-18T02:27:00;15.40;99.90
34283;DHT22;20542;49.828;8.746;2022-07-18T02:29:26;15.40;99.90
34283;DHT22;20542;49.828;8.746;2022-07-18T02:31:52;15.40;99.90
34283;DHT22;20542;49.828;8.746;2022-07-18T02:34:17;15.40;99.90
34283;DHT22;20542;49.828;8.746;2022-07-18T02:36:43;15.40;99.90
34283;DHT22;20542;49.828;8.746;2022-07-18T02:39:09;15.40;99.90
34283;DHT22;20542;49.828;8.746;2022-07-18T02:41:35;15.40;99.90
34283;DHT22;20542;49.828;8.746;2022-07-18T02:44:02;15.40;99.90
34283;DHT22;20542;49.828;8.746;2022-07-18T02:46:27;15.30;99.90
34283;DHT22;20542;49.828;8.746;2022-07-18T02:48:53;15.30;99.90
34283;DHT22;20542;49.828;8.746;2022-07-18T02:51:19;15.30;99.90
34283;DHT22;20542;49.828;8.746;2022-07-18T02:53:44;15.40;99.90
34283;DHT22;20542;49.828;8.746;2022-07-18T02:56:10;15.30;99.90
34283;DHT22;20542;49.828;8.746;2022-07-18T02:58:36;15.10;99.90
34283;DHT22;20542;49.828;8.746;2022-07-18T03:01:01;15.10;99.90
34283;DHT22;20542;49.828;8.746;2022-07-18T03:03:27;15.10;99.90
34283;DHT22;20542;49.828;8.746;2022-07-18T03:05:52;15.10;99.90
34283;DHT22;20542;49.828;8.746;2022-07-18T03:08:18;15.10;99.90
34283;DHT22;20542;49.828;8.746;2022-07-18T03:10:43;15.10;99.90
34283;DHT22;20542;49.828;8.746;2022-07-18T03:13:09;14.90;99.90
34283;DHT22;20542;49.828;8.746;2022-07-18T03:15:36;15.00;99.90
34283;DHT22;20542;49.828;8.746;2022-07-18T03:18:02;15.00;99.90
34283;DHT22;20542;49.828;8.746;2022-07-18T03:20:28;15.10;99.90
34283;DHT22;20542;49.828;8.746;2022-07-18T03:22:54;15.10;99.90
34283;DHT22;20542;49.828;8.746;2022-07-18T03:25:19;15.00;99.90
34283;DHT22;20542;49.828;8.746;2022-07-18T03:27:45;15.00;99.90
34283;DHT22;20542;49.828;8.746;2022-07-18T03:30:11;14.90;99.90
34283;DHT22;20542;49.828;8.746;2022-07-18T03:32:37;14.90;99.90
34283;DHT22;20542;49.828;8.746;2022-07-18T03:35:02;14.80;99.90
34283;DHT22;20542;49.828;8.746;2022-07-18T03:37:28;14.70;99.90
34283;DHT22;20542;49.828;8.746;2022-07-18T03:39:54;14.50;99.90
34283;DHT22;20542;49.828;8.746;2022-07-18T03:42:19;14.40;99.90
34283;DHT22;20542;49.828;8.746;2022-07-18T03:44:45;14.30;99.90
34283;DHT22;20542;49.828;8.746;2022-07-18T03:47:11;14.20;99.90
34283;DHT22;20542;49.828;8.746;2022-07-18T03:49:36;14.10;99.90
34283;DHT22;20542;49.828;8.746;2022-07-18T03:52:02;14.10;99.90
34283;DHT22;20542;49.828;8.746;2022-07-18T03:54:28;14.10;99.90
34283;DHT22;20542;49.828;8.746;2022-07-18T03:56:53;14.00;99.90
34283;DHT22;20542;49.828;8.746;2022-07-18T03:59:19;14.00;99.90
34283;DHT22;20542;49.828;8.746;2022-07-18T04:01:45;13.90;99.90
34283;DHT22;20542;49.828;8.746;2022-07-18T04:04:10;13.90;99.90
34283;DHT22;20542;49.828;8.746;2022-07-18T04:06:36;13.80;99.90
34283;DHT22;20542;49.828;8.746;2022-07-18T04:09:01;13.80;99.90
34283;DHT22;20542;49.828;8.746;2022-07-18T04:11:27;13.90;99.90
34283;DHT22;20542;49.828;8.746;2022-07-18T04:13:54;14.00;99.90
34283;DHT22;20542;49.828;8.746;2022-07-18T04:16:20;14.10;99.90
34283;DHT22;20542;49.828;8.746;2022-07-18T04:18:46;14.20;99.90
34283;DHT22;20542;49.828;8.746;2022-07-18T04:21:12;14.20;99.90
34283;DHT22;20542;49.828;8.746;2022-07-18T04:23:39;14.20;99.90
34283;DHT22;20542;49.828;8.746;2022-07-18T04:26:05;14.20;99.90
34283;DHT22;20542;49.828;8.746;2022-07-18T04:28:31;14.30;99.90
34283;DHT22;20542;49.828;8.746;2022-07-18T04:30:56;14.40;99.90
34283;DHT22;20542;49.828;8.746;2022-07-18T04:33:22;14.50;99.90
34283;DHT22;20542;49.828;8.746;2022-07-18T04:35:48;14.60;99.90
34283;DHT22;20542;49.828;8.746;2022-07-18T04:38:14;14.70;99.90
34283;DHT22;20542;49.828;8.746;2022-07-18T04:40:40;14.70;99.90
34283;DHT22;20542;49.828;8.746;2022-07-18T04:43:06;14.90;99.90
34283;DHT22;20542;49.828;8.746;2022-07-18T04:45:33;15.00;99.90
34283;DHT22;20542;49.828;8.746;2022-07-18T04:47:59;15.10;99.90
34283;DHT22;20542;49.828;8.746;2022-07-18T04:50:25;15.20;99.90
34283;DHT22;20542;49.828;8.746;2022-07-18T04:52:51;15.40;99.90
34283;DHT22;20542;49.828;8.746;2022-07-18T04:55:19;15.50;99.90
34283;DHT22;20542;49.828;8.746;2022-07-18T04:57:45;15.60;99.90
34283;DHT22;20542;49.828;8.746;2022-07-18T05:00:13;15.80;99.90
34283;DHT22;20542;49.828;8.746;2022-07-18T05:02:50;16.00;99.90
34283;DHT22;20542;49.828;8.746;2022-07-18T05:05:17;16.10;99.90
34283;DHT22;20542;49.828;8.746;2022-07-18T05:07:44;16.20;99.90
34283;DHT22;20542;49.828;8.746;2022-07-18T05:10:12;16.30;99.90
34283;DHT22;20542;49.828;8.746;2022-07-18T05:12:40;16.40;99.90
34283;DHT22;20542;49.828;8.746;2022-07-18T05:15:07;16.60;99.90
34283;DHT22;20542;49.828;8.746;2022-07-18T05:17:33;16.70;99.90
34283;DHT22;20542;49.828;8.746;2022-07-18T05:19:59;16.80;99.90
34283;DHT22;20542;49.828;8.746;2022-07-18T05:22:24;16.90;99.90
34283;DHT22;20542;49.828;8.746;2022-07-18T05:24:51;17.00;99.90
34283;DHT22;20542;49.828;8.746;2022-07-18T05:27:16;17.20;99.90
34283;DHT22;20542;49.828;8.746;2022-07-18T05:29:42;17.40;99.90
34283;DHT22;20542;49.828;8.746;2022-07-18T05:32:08;17.60;99.90
34283;DHT22;20542;49.828;8.746;2022-07-18T05:34:34;17.70;99.90
34283;DHT22;20542;49.828;8.746;2022-07-18T05:36:59;17.90;99.90
34283;DHT22;20542;49.828;8.746;2022-07-18T05:39:25;18.00;99.90
34283;DHT22;20542;49.828;8.746;2022-07-18T05:41:52;18.20;99.90
34283;DHT22;20542;49.828;8.746;2022-07-18T05:44:17;18.40;99.90
34283;DHT22;20542;49.828;8.746;2022-07-18T05:46:45;18.50;99.90
34283;DHT22;20542;49.828;8.746;2022-07-18T05:49:12;18.70;99.90
34283;DHT22;20542;49.828;8.746;2022-07-18T05:51:37;18.80;99.90
34283;DHT22;20542;49.828;8.746;2022-07-18T05:54:03;19.00;99.90
34283;DHT22;20542;49.828;8.746;2022-07-18T05:56:29;19.20;99.90
34283;DHT22;20542;49.828;8.746;2022-07-18T05:58:54;19.20;99.90
34283;DHT22;20542;49.828;8.746;2022-07-18T06:01:20;19.50;99.90
34283;DHT22;20542;49.828;8.746;2022-07-18T06:03:46;19.70;99.90
34283;DHT22;20542;49.828;8.746;2022-07-18T06:06:13;20.00;99.90
34283;DHT22;20542;49.828;8.746;2022-07-18T06:08:38;20.20;99.90
34283;DHT22;20542;49.828;8.746;2022-07-18T06:11:04;20.50;99.90
34283;DHT22;20542;49.828;8.746;2022-07-18T06:13:32;20.60;99.90
34283;DHT22;20542;49.828;8.746;2022-07-18T06:15:58;20.70;99.90
34283;DHT22;20542;49.828;8.746;2022-07-18T06:18:23;20.90;99.90
34283;DHT22;20542;49.828;8.746;2022-07-18T06:20:49;21.20;99.90
34283;DHT22;20542;49.828;8.746;2022-07-18T06:23:15;21.40;99.90
34283;DHT22;20542;49.828;8.746;2022-07-18T06:25:40;21.60;99.90
34283;DHT22;20542;49.828;8.746;2022-07-18T06:28:06;21.70;99.90
34283;DHT22;20542;49.828;8.746;2022-07-18T06:30:31;22.00;99.90
34283;DHT22;20542;49.828;8.746;2022-07-18T06:32:57;22.10;99.90
34283;DHT22;20542;49.828;8.746;2022-07-18T06:35:22;22.40;99.90
34283;DHT22;20542;49.828;8.746;2022-07-18T06:37:48;22.60;99.90
34283;DHT22;20542;49.828;8.746;2022-07-18T06:40:13;22.80;99.90
34283;DHT22;20542;49.828;8.746;2022-07-18T06:42:39;23.00;99.20
34283;DHT22;20542;49.828;8.746;2022-07-18T06:45:06;23.20;99.40
34283;DHT22;20542;49.828;8.746;2022-07-18T06:47:32;23.30;99.10
34283;DHT22;20542;49.828;8.746;2022-07-18T06:49:57;23.50;99.00
34283;DHT22;20542;49.828;8.746;2022-07-18T06:52:23;23.60;98.60
34283;DHT22;20542;49.828;8.746;2022-07-18T06:54:48;23.70;98.90
34283;DHT22;20542;49.828;8.746;2022-07-18T06:57:14;23.80;97.90
34283;DHT22;20542;49.828;8.746;2022-07-18T06:59:40;23.80;96.80
34283;DHT22;20542;49.828;8.746;2022-07-18T07:02:05;23.80;96.60
34283;DHT22;20542;49.828;8.746;2022-07-18T07:04:31;23.80;97.40
34283;DHT22;20542;49.828;8.746;2022-07-18T07:06:56;24.00;97.20
34283;DHT22;20542;49.828;8.746;2022-07-18T07:09:22;24.20;97.00
34283;DHT22;20542;49.828;8.746;2022-07-18T07:11:47;24.20;97.60
34283;DHT22;20542;49.828;8.746;2022-07-18T07:14:13;24.10;97.40
34283;DHT22;20542;49.828;8.746;2022-07-18T07:16:38;24.00;96.90
34283;DHT22;20542;49.828;8.746;2022-07-18T07:19:04;24.20;96.90
34283;DHT22;20542;49.828;8.746;2022-07-18T07:21:30;24.20;96.20
34283;DHT22;20542;49.828;8.746;2022-07-18T07:23:55;24.40;95.70
34283;DHT22;20542;49.828;8.746;2022-07-18T07:26:21;24.50;95.90
34283;DHT22;20542;49.828;8.746;2022-07-18T07:28:46;24.60;95.90
34283;DHT22;20542;49.828;8.746;2022-07-18T07:31:12;24.70;96.10
34283;DHT22;20542;49.828;8.746;2022-07-18T07:33:37;25.00;96.90
34283;DHT22;20542;49.828;8.746;2022-07-18T07:36:03;25.20;96.50
34283;DHT22;20542;49.828;8.746;2022-07-18T07:38:30;25.30;96.30
34283;DHT22;20542;49.828;8.746;2022-07-18T07:40:56;25.50;95.30
34283;DHT22;20542;49.828;8.746;2022-07-18T07:43:21;25.80;95.70
34283;DHT22;20542;49.828;8.746;2022-07-18T07:45:49;25.80;94.90
34283;DHT22;20542;49.828;8.746;2022-07-18T07:48:16;25.80;94.50
34283;DHT22;20542;49.828;8.746;2022-07-18T07:50:41;26.00;94.20
34283;DHT22;20542;49.828;8.746;2022-07-18T07:53:07;26.10;94.20
34283;DHT22;20542;49.828;8.746;2022-07-18T07:55:33;26.30;93.20
34283;DHT22;20542;49.828;8.746;2022-07-18T07:57:59;26.50;93.00
34283;DHT22;20542;49.828;8.746;2022-07-18T08:00:25;26.70;92.10
34283;DHT22;20542;49.828;8.746;2022-07-18T08:02:56;27.00;92.30
34283;DHT22;20542;49.828;8.746;2022-07-18T08:05:23;27.30;93.00
34283;DHT22;20542;49.828;8.746;2022-07-18T08:07:48;27.30;93.40
34283;DHT22;20542;49.828;8.746;2022-07-18T08:10:14;27.70;91.70
34283;DHT22;20542;49.828;8.746;2022-07-18T08:12:40;27.50;91.40
34283;DHT22;20542;49.828;8.746;2022-07-18T08:15:06;27.10;92.10
34283;DHT22;20542;49.828;8.746;2022-07-18T08:17:31;27.30;92.20
34283;DHT22;20542;49.828;8.746;2022-07-18T08:19:57;27.60;92.00
34283;DHT22;20542;49.828;8.746;2022-07-18T08:22:23;27.80;91.20
34283;DHT22;20542;49.828;8.746;2022-07-18T08:24:48;27.60;91.10
34283;DHT22;20542;49.828;8.746;2022-07-18T08:27:14;27.70;90.70
34283;DHT22;20542;49.828;8.746;2022-07-18T08:29:40;27.70;90.30
34283;DHT22;20542;49.828;8.746;2022-07-18T08:32:05;27.90;91.20
34283;DHT22;20542;49.828;8.746;2022-07-18T08:34:31;28.10;90.70
34283;DHT22;20542;49.828;8.746;2022-07-18T08:36:57;28.30;88.30
34283;DHT22;20542;49.828;8.746;2022-07-18T08:39:22;28.10;89.30
34283;DHT22;20542;49.828;8.746;2022-07-18T08:41:50;28.30;84.40
34283;DHT22;20542;49.828;8.746;2022-07-18T08:44:16;28.60;85.10
34283;DHT22;20542;49.828;8.746;2022-07-18T08:46:46;28.60;86.80
34283;DHT22;20542;49.828;8.746;2022-07-18T08:49:14;29.10;88.80
34283;DHT22;20542;49.828;8.746;2022-07-18T08:51:41;29.20;85.40
34283;DHT22;20542;49.828;8.746;2022-07-18T08:54:07;29.40;82.30
34283;DHT22;20542;49.828;8.746;2022-07-18T08:56:33;29.60;82.00
34283;DHT22;20542;49.828;8.746;2022-07-18T08:59:03;29.90;81.60
34283;DHT22;20542;49.828;8.746;2022-07-18T09:01:29;30.10;84.60
34283;DHT22;20542;49.828;8.746;2022-07-18T09:03:55;30.30;80.40
34283;DHT22;20542;49.828;8.746;2022-07-18T09:06:49;30.40;79.10
34283;DHT22;20542;49.828;8.746;2022-07-18T09:09:17;30.50;76.80
34283;DHT22;20542;49.828;8.746;2022-07-18T09:12:09;30.70;80.10
34283;DHT22;20542;49.828;8.746;2022-07-18T09:14:41;30.60;78.30
34283;DHT22;20542;49.828;8.746;2022-07-18T09:17:19;30.60;77.70
34283;DHT22;20542;49.828;8.746;2022-07-18T09:22:38;30.70;72.50
34283;DHT22;20542;49.828;8.746;2022-07-18T09:25:09;30.80;71.50
34283;DHT22;20542;49.828;8.746;2022-07-18T09:27:43;30.90;70.90
34283;DHT22;20542;49.828;8.746;2022-07-18T09:32:50;31.40;71.90
34283;DHT22;20542;49.828;8.746;2022-07-18T09:35:25;31.10;68.80
34283;DHT22;20542;49.828;8.746;2022-07-18T09:38:05;31.00;69.40
34283;DHT22;20542;49.828;8.746;2022-07-18T09:40:35;31.30;69.40
34283;DHT22;20542;49.828;8.746;2022-07-18T09:43:13;31.20;70.20
34283;DHT22;20542;49.828;8.746;2022-07-18T09:45:49;30.90;68.30
34283;DHT22;20542;49.828;8.746;2022-07-18T09:48:18;31.10;69.20
34283;DHT22;20542;49.828;8.746;2022-07-18T09:50:54;31.10;69.40
34283;DHT22;20542;49.828;8.746;2022-07-18T09:55:54;31.40;67.00
34283;DHT22;20542;49.828;8.746;2022-07-18T09:58:24;31.30;71.10
34283;DHT22;20542;49.828;8.746;2022-07-18T10:00:51;31.40;67.40
34283;DHT22;20542;49.828;8.746;2022-07-18T10:03:17;31.00;67.30
34283;DHT22;20542;49.828;8.746;2022-07-18T10:05:45;31.00;69.30
34283;DHT22;20542;49.828;8.746;2022-07-18T10:08:13;31.10;69.70
34283;DHT22;20542;49.828;8.746;2022-07-18T10:10:41;30.70;68.50
34283;DHT22;20542;49.828;8.746;2022-07-18T10:13:07;30.70;68.90
34283;DHT22;20542;49.828;8.746;2022-07-18T10:15:36;31.00;68.40
34283;DHT22;20542;49.828;8.746;2022-07-18T10:18:05;30.80;68.40
34283;DHT22;20542;49.828;8.746;2022-07-18T10:20:37;30.80;72.70
34283;DHT22;20542;49.828;8.746;2022-07-18T10:23:09;31.20;68.40
34283;DHT22;20542;49.828;8.746;2022-07-18T10:25:36;31.20;68.60
34283;DHT22;20542;49.828;8.746;2022-07-18T10:28:11;31.20;69.00
34283;DHT22;20542;49.828;8.746;2022-07-18T10:30:47;31.60;69.70
34283;DHT22;20542;49.828;8.746;2022-07-18T10:33:37;31.60;67.80
34283;DHT22;20542;49.828;8.746;2022-07-18T10:36:09;31.10;68.00
34283;DHT22;20542;49.828;8.746;2022-07-18T10:38:35;31.50;70.10
34283;DHT22;20542;49.828;8.746;2022-07-18T10:41:10;31.50;67.80
34283;DHT22;20542;49.828;8.746;2022-07-18T10:43:38;31.60;68.10
34283;DHT22;20542;49.828;8.746;2022-07-18T10:46:06;31.70;67.10
34283;DHT22;20542;49.828;8.746;2022-07-18T10:51:07;32.00;68.30
34283;DHT22;20542;49.828;8.746;2022-07-18T10:57:03;32.70;68.70
34283;DHT22;20542;49.828;8.746;2022-07-18T10:59:16;33.00;68.50
34283;DHT22;20542;49.828;8.746;2022-07-18T11:01:49;32.50;67.20
34283;DHT22;20542;49.828;8.746;2022-07-18T11:04:28;32.50;67.80
34283;DHT22;20542;49.828;8.746;2022-07-18T11:07:03;32.50;65.80
34283;DHT22;20542;49.828;8.746;2022-07-18T11:09:37;32.70;66.10
34283;DHT22;20542;49.828;8.746;2022-07-18T11:12:29;32.80;67.50
34283;DHT22;20542;49.828;8.746;2022-07-18T11:15:09;32.50;66.60
34283;DHT22;20542;49.828;8.746;2022-07-18T11:20:25;32.50;66.00
34283;DHT22;20542;49.828;8.746;2022-07-18T11:22:51;32.70;65.30
34283;DHT22;20542;49.828;8.746;2022-07-18T11:25:17;32.90;66.00
34283;DHT22;20542;49.828;8.746;2022-07-18T11:27:44;33.20;67.10
34283;DHT22;20542;49.828;8.746;2022-07-18T11:30:10;33.30;65.30
34283;DHT22;20542;49.828;8.746;2022-07-18T11:32:36;33.30;64.70
34283;DHT22;20542;49.828;8.746;2022-07-18T11:35:02;33.40;63.80
34283;DHT22;20542;49.828;8.746;2022-07-18T11:37:31;33.50;63.10
34283;DHT22;20542;49.828;8.746;2022-07-18T11:40:07;33.40;64.90
34283;DHT22;20542;49.828;8.746;2022-07-18T11:42:40;33.60;65.30
34283;DHT22;20542;49.828;8.746;2022-07-18T11:45:07;33.50;62.80
34283;DHT22;20542;49.828;8.746;2022-07-18T11:47:45;33.00;63.20
34283;DHT22;20542;49.828;8.746;2022-07-18T11:50:11;33.20;64.00
34283;DHT22;20542;49.828;8.746;2022-07-18T11:52:36;33.30;63.80
34283;DHT22;20542;49.828;8.746;2022-07-18T11:55:02;33.70;63.20
34283;DHT22;20542;49.828;8.746;2022-07-18T11:57:30;34.00;62.90
34283;DHT22;20542;49.828;8.746;2022-07-18T11:59:57;34.20;63.40
34283;DHT22;20542;49.828;8.746;2022-07-18T12:05:34;34.10;62.20
34283;DHT22;20542;49.828;8.746;2022-07-18T12:08:00;33.80;63.00
34283;DHT22;20542;49.828;8.746;2022-07-18T12:10:26;33.90;61.50
34283;DHT22;20542;49.828;8.746;2022-07-18T12:12:53;34.10;63.50
34283;DHT22;20542;49.828;8.746;2022-07-18T12:15:18;34.30;61.90
34283;DHT22;20542;49.828;8.746;2022-07-18T12:17:48;34.60;61.60
34283;DHT22;20542;49.828;8.746;2022-07-18T12:20:20;34.80;62.30
34283;DHT22;20542;49.828;8.746;2022-07-18T12:23:08;34.80;62.40
34283;DHT22;20542;49.828;8.746;2022-07-18T12:25:43;34.90;61.10
34283;DHT22;20542;49.828;8.746;2022-07-18T12:28:18;34.80;60.30
34283;DHT22;20542;49.828;8.746;2022-07-18T12:30:45;34.40;61.00
34283;DHT22;20542;49.828;8.746;2022-07-18T12:33:11;34.90;63.60
34283;DHT22;20542;49.828;8.746;2022-07-18T12:35:38;35.10;61.30
34283;DHT22;20542;49.828;8.746;2022-07-18T12:40:53;34.90;60.80
34283;DHT22;20542;49.828;8.746;2022-07-18T12:43:26;34.80;59.50
34283;DHT22;20542;49.828;8.746;2022-07-18T12:45:53;34.50;60.20
34283;DHT22;20542;49.828;8.746;2022-07-18T12:48:20;34.40;60.00
34283;DHT22;20542;49.828;8.746;2022-07-18T12:50:46;34.40;60.50
34283;DHT22;20542;49.828;8.746;2022-07-18T12:53:19;34.60;62.70
34283;DHT22;20542;49.828;8.746;2022-07-18T12:55:45;34.30;61.40
34283;DHT22;20542;49.828;8.746;2022-07-18T12:58:10;33.50;61.50
34283;DHT22;20542;49.828;8.746;2022-07-18T13:00:36;33.20;61.50
34283;DHT22;20542;49.828;8.746;2022-07-18T13:03:02;33.60;62.50
34283;DHT22;20542;49.828;8.746;2022-07-18T13:05:29;33.50;61.60
34283;DHT22;20542;49.828;8.746;2022-07-18T13:07:55;33.60;61.40
34283;DHT22;20542;49.828;8.746;2022-07-18T13:10:21;33.90;61.00
34283;DHT22;20542;49.828;8.746;2022-07-18T13:12:46;33.90;60.90
34283;DHT22;20542;49.828;8.746;2022-07-18T13:15:12;33.90;60.80
34283;DHT22;20542;49.828;8.746;2022-07-18T13:17:38;33.50;62.70
34283;DHT22;20542;49.828;8.746;2022-07-18T13:20:04;33.60;61.70
34283;DHT22;20542;49.828;8.746;2022-07-18T13:22:30;33.30;61.80
34283;DHT22;20542;49.828;8.746;2022-07-18T13:25:06;33.60;62.10
34283;DHT22;20542;49.828;8.746;2022-07-18T13:27:32;34.10;61.30
34283;DHT22;20542;49.828;8.746;2022-07-18T13:29:58;34.40;61.00
34283;DHT22;20542;49.828;8.746;2022-07-18T13:32:23;34.60;60.40
34283;DHT22;20542;49.828;8.746;2022-07-18T13:34:49;34.80;60.70
34283;DHT22;20542;49.828;8.746;2022-07-18T13:37:14;34.80;59.20
34283;DHT22;20542;49.828;8.746;2022-07-18T13:39:40;34.80;59.80
34283;DHT22;20542;49.828;8.746;2022-07-18T13:42:05;34.80;60.00
34283;DHT22;20542;49.828;8.746;2022-07-18T13:44:31;34.80;59.40
34283;DHT22;20542;49.828;8.746;2022-07-18T13:46:57;34.50;59.80
34283;DHT22;20542;49.828;8.746;2022-07-18T13:49:22;34.50;61.50
34283;DHT22;20542;49.828;8.746;2022-07-18T13:51:48;34.60;60.00
34283;DHT22;20542;49.828;8.746;2022-07-18T13:54:14;34.80;60.20
34283;DHT22;20542;49.828;8.746;2022-07-18T13:56:43;35.00;59.10
34283;DHT22;20542;49.828;8.746;2022-07-18T13:59:08;35.10;59.90
34283;DHT22;20542;49.828;8.746;2022-07-18T14:01:34;35.20;59.10
34283;DHT22;20542;49.828;8.746;2022-07-18T14:03:59;35.30;60.60
34283;DHT22;20542;49.828;8.746;2022-07-18T14:06:25;35.40;60.60
34283;DHT22;20542;49.828;8.746;2022-07-18T14:08:51;35.10;59.10
34283;DHT22;20542;49.828;8.746;2022-07-18T14:11:16;35.30;59.60
34283;DHT22;20542;49.828;8.746;2022-07-18T14:13:42;35.20;61.30
34283;DHT22;20542;49.828;8.746;2022-07-18T14:16:08;35.40;59.70
34283;DHT22;20542;49.828;8.746;2022-07-18T14:18:33;35.50;59.50
34283;DHT22;20542;49.828;8.746;2022-07-18T14:20:59;35.60;60.60
34283;DHT22;20542;49.828;8.746;2022-07-18T14:23:24;35.40;59.30
34283;DHT22;20542;49.828;8.746;2022-07-18T14:25:50;35.40;60.10
34283;DHT22;20542;49.828;8.746;2022-07-18T14:28:15;35.40;59.80
34283;DHT22;20542;49.828;8.746;2022-07-18T14:30:41;35.10;59.40
34283;DHT22;20542;49.828;8.746;2022-07-18T14:33:06;35.20;59.30
34283;DHT22;20542;49.828;8.746;2022-07-18T14:35:32;35.20;59.50
34283;DHT22;20542;49.828;8.746;2022-07-18T14:37:58;35.40;60.30
34283;DHT22;20542;49.828;8.746;2022-07-18T14:40:23;35.50;59.40
34283;DHT22;20542;49.828;8.746;2022-07-18T14:42:49;35.30;59.20
34283;DHT22;20542;49.828;8.746;2022-07-18T14:45:16;35.10;59.80
34283;DHT22;20542;49.828;8.746;2022-07-18T14:47:42;35.20;59.30
34283;DHT22;20542;49.828;8.746;2022-07-18T14:50:09;35.10;60.50
34283;DHT22;20542;49.828;8.746;2022-07-18T14:52:36;34.90;59.40
34283;DHT22;20542;49.828;8.746;2022-07-18T14:55:02;35.10;60.00
34283;DHT22;20542;49.828;8.746;2022-07-18T14:57:27;35.10;60.00
34283;DHT22;20542;49.828;8.746;2022-07-18T14:59:53;35.10;59.60
34283;DHT22;20542;49.828;8.746;2022-07-18T15:02:19;34.80;60.30
34283;DHT22;20542;49.828;8.746;2022-07-18T15:04:44;34.90;60.60
34283;DHT22;20542;49.828;8.746;2022-07-18T15:07:10;34.30;59.50
34283;DHT22;20542;49.828;8.746;2022-07-18T15:09:36;34.00;60.10
34283;DHT22;20542;49.828;8.746;2022-07-18T15:12:02;33.90;60.20
34283;DHT22;20542;49.828;8.746;2022-07-18T15:14:28;33.50;60.40
34283;DHT22;20542;49.828;8.746;2022-07-18T15:16:53;33.40;60.90
34283;DHT22;20542;49.828;8.746;2022-07-18T15:19:19;33.50;60.60
34283;DHT22;20542;49.828;8.746;2022-07-18T15:21:45;33.80;60.40
34283;DHT22;20542;49.828;8.746;2022-07-18T15:24:10;34.00;60.70
34283;DHT22;20542;49.828;8.746;2022-07-18T15:26:36;34.10;61.40
34283;DHT22;20542;49.828;8.746;2022-07-18T15:29:02;33.90;60.90
34283;DHT22;20542;49.828;8.746;2022-07-18T15:31:27;33.70;61.00
34283;DHT22;20542;49.828;8.746;2022-07-18T15:33:53;33.50;60.90
34283;DHT22;20542;49.828;8.746;2022-07-18T15:36:19;33.60;60.80
34283;DHT22;20542;49.828;8.746;2022-07-18T15:38:44;33.80;61.80
34283;DHT22;20542;49.828;8.746;2022-07-18T15:41:11;33.60;60.60
34283;DHT22;20542;49.828;8.746;2022-07-18T15:43:37;33.30;60.40
34283;DHT22;20542;49.828;8.746;2022-07-18T15:46:03;33.40;62.00
34283;DHT22;20542;49.828;8.746;2022-07-18T15:48:28;33.50;61.00
34283;DHT22;20542;49.828;8.746;2022-07-18T15:50:54;33.70;61.20